Time;durP1;ratioP1;P1;durP2;ratioP2;P2;SDS_P1;SDS_P2;PMS_P1;PMS_P2;Temp;Humidity;BMP_temperature;BMP_pressure;BME280_temperature;BME280_humidity;BME280_pressure;Samples;Min_cycle;Max_cycle;Signal;HPM_P1;HPM_P2
2021/06/03 00:01:56;;;;;;;7.07;4.80;;;;;;;18.43;59.22;99044.41;4974096;28;20027;-63
2021/06/03 00:04:21;;;;;;;7.32;4.80;;;;;;;18.32;59.24;99044.06;4964290;28;20502;-63
2021/06/03 00:06:47;;;;;;;7.57;5.13;;;;;;;18.29;59.13;99045.25;4978632;28;20111;-64
2021/06/03 00:09:13;;;;;;;7.55;5.10;;;;;;;18.28;58.92;99037.53;4964614;28;20374;-64
2021/06/03 00:11:39;;;;;;;7.05;4.78;;;;;;;18.37;58.85;99047.78;4967011;28;20030;-64
2021/06/03 00:14:05;;;;;;;8.18;5.00;;;;;;;18.35;58.83;99025.28;4965614;28;20050;-64
2021/06/03 00:16:33;;;;;;;6.90;4.75;;;;;;;18.31;58.95;99035.38;4994447;28;20031;-64
2021/06/03 00:19:09;;;;;;;8.10;4.97;;;;;;;18.28;59.21;99037.53;4981994;28;20476;-63
2021/06/03 00:21:36;;;;;;;7.28;5.03;;;;;;;18.32;58.82;99033.53;4979617;28;20638;-64
2021/06/03 00:24:02;;;;;;;8.95;5.45;;;;;;;18.30;58.87;99038.97;4976782;28;20072;-64
2021/06/03 00:26:28;;;;;;;7.07;4.93;;;;;;;18.20;58.62;99035.84;4977805;28;20434;-63
2021/06/03 00:28:53;;;;;;;6.45;4.78;;;;;;;18.22;58.66;99034.66;4982002;28;20030;-64
2021/06/03 00:31:18;;;;;;;6.35;5.10;;;;;;;18.29;58.88;99047.91;4981948;28;20715;-64
2021/06/03 00:33:44;;;;;;;6.88;5.15;;;;;;;18.36;57.99;99046.16;4983072;28;20038;-64
2021/06/03 00:36:11;;;;;;;8.85;4.97;;;;;;;18.32;58.25;99050.13;4963083;28;20353;-64
2021/06/03 00:38:37;;;;;;;7.30;4.85;;;;;;;18.34;58.84;99045.50;4977991;28;20109;-64
2021/06/03 00:41:04;;;;;;;5.93;4.65;;;;;;;18.34;59.38;99052.59;4963381;28;20117;-63
2021/06/03 00:43:30;;;;;;;7.43;5.25;;;;;;;18.38;58.82;99056.47;4961931;28;20216;-64
2021/06/03 00:45:55;;;;;;;6.72;4.90;;;;;;;17.98;59.43;99021.75;4991734;28;20264;-64
2021/06/03 00:48:21;;;;;;;8.88;5.13;;;;;;;18.24;59.76;99063.41;4966126;28;20042;-64
2021/06/03 00:50:52;;;;;;;7.68;5.05;;;;;;;18.25;60.01;99055.34;4985783;28;20034;-64
2021/06/03 00:53:18;;;;;;;7.43;4.53;;;;;;;18.32;59.17;99065.13;5010360;28;20041;-64
2021/06/03 00:55:51;;;;;;;6.65;4.97;;;;;;;18.23;59.27;99059.13;4961382;28;20369;-64
2021/06/03 00:58:17;;;;;;;7.75;4.68;;;;;;;18.27;58.40;99068.28;5003723;28;20071;-64
2021/06/03 01:00:42;;;;;;;7.57;4.85;;;;;;;18.22;58.68;99066.22;4965492;28;20034;-64
2021/06/03 01:03:08;;;;;;;8.30;4.72;;;;;;;17.99;58.59;99031.31;4982481;28;20056;-63
2021/06/03 01:05:39;;;;;;;8.15;5.10;;;;;;;18.26;58.47;99069.31;4996875;28;20036;-64
2021/06/03 01:08:12;;;;;;;7.82;5.07;;;;;;;18.16;59.67;99069.59;4987070;28;20034;-64
2021/06/03 01:10:48;;;;;;;8.93;4.93;;;;;;;18.18;59.94;99072.03;4979492;28;20034;-64
2021/06/03 01:13:20;;;;;;;7.65;5.28;;;;;;;18.09;60.02;99073.97;4987164;28;20148;-64
2021/06/03 01:15:47;;;;;;;7.22;4.85;;;;;;;17.95;60.82;99056.34;4979845;28;20487;-63
2021/06/03 01:18:13;;;;;;;7.53;4.78;;;;;;;18.11;60.66;99076.38;5005749;28;20038;-64
2021/06/03 01:20:39;;;;;;;6.53;4.88;;;;;;;18.08;60.26;99088.09;4984147;28;20113;-63
2021/06/03 01:23:29;;;;;;;8.30;5.18;;;;;;;18.00;60.53;99088.19;4968316;28;20464;-63
2021/06/03 01:25:54;;;;;;;;;;;;;;;17.99;60.92;99090.00;4984785;28;20052;-63
2021/06/03 01:28:21;;;;;;;7.30;4.75;;;;;;;18.02;60.24;99096.72;4979420;28;19984;-63
2021/06/03 01:30:52;;;;;;;5.93;4.78;;;;;;;17.92;61.15;99073.28;4976445;28;20746;-62
2021/06/03 01:33:27;;;;;;;7.65;5.03;;;;;;;17.94;61.12;99073.94;4973774;28;20050;-63
2021/06/03 01:35:57;;;;;;;7.28;4.95;;;;;;;17.99;61.62;99086.56;4981505;28;20077;-63
2021/06/03 01:38:30;;;;;;;6.30;4.88;;;;;;;18.09;61.74;99087.13;4982354;28;20050;-63
2021/06/03 01:40:57;;;;;;;6.68;5.32;;;;;;;18.00;62.37;99081.13;4981148;28;20053;-63
2021/06/03 01:43:23;;;;;;;7.22;4.97;;;;;;;18.04;62.85;99089.47;4973737;28;20069;-63
2021/06/03 01:45:50;;;;;;;7.47;4.78;;;;;;;18.07;62.26;99089.09;4965194;28;20765;-62
2021/06/03 01:48:18;;;;;;;9.02;5.07;;;;;;;18.11;61.65;99095.63;4971999;28;20038;-62
2021/06/03 01:50:45;;;;;;;7.32;4.85;;;;;;;17.78;62.06;99053.03;4981324;28;20826;-63
2021/06/03 01:53:11;;;;;;;8.50;4.57;;;;;;;18.05;62.26;99091.09;4976249;28;20026;-64
2021/06/03 01:55:37;;;;;;;9.85;5.30;;;;;;;17.94;62.07;99078.38;4976509;28;20045;-64
2021/06/03 01:58:04;;;;;;;9.60;4.93;;;;;;;17.97;61.47;99084.09;4974397;28;20038;-63
2021/06/03 02:00:31;;;;;;;9.68;5.10;;;;;;;17.94;61.67;99088.91;4977122;28;20035;-62
2021/06/03 02:02:57;;;;;;;8.98;5.13;;;;;;;17.93;61.55;99082.03;4993034;28;20093;-63
2021/06/03 02:05:22;;;;;;;6.60;4.80;;;;;;;18.00;60.88;99083.75;4978506;28;20489;-62
2021/06/03 02:07:48;;;;;;;6.97;4.95;;;;;;;17.71;60.62;99047.69;4992352;28;20026;-62
2021/06/03 02:10:15;;;;;;;6.65;4.40;;;;;;;17.93;59.45;99088.09;4976565;28;20030;-63
2021/06/03 02:12:46;;;;;;;6.55;4.68;;;;;;;17.96;59.01;99081.66;4961944;28;20085;-62
2021/06/03 02:15:12;;;;;;;6.72;4.78;;;;;;;17.44;59.05;99010.47;4984179;28;20490;-63
2021/06/03 02:17:42;;;;;;;7.43;4.32;;;;;;;17.64;59.34;99036.25;4971201;28;20035;-62
2021/06/03 02:20:10;;;;;;;8.07;4.78;;;;;;;17.73;59.08;99045.69;4966102;28;20358;-62
2021/06/03 02:22:37;;;;;;;7.32;5.22;;;;;;;17.86;59.14;99069.56;4981585;28;20065;-63
2021/06/03 02:25:05;;;;;;;8.05;4.85;;;;;;;17.93;61.11;99079.41;4959856;28;20038;-62
2021/06/03 02:27:30;;;;;;;7.28;4.85;;;;;;;17.85;61.74;99077.63;4981548;28;20761;-62
2021/06/03 02:29:56;;;;;;;7.47;5.35;;;;;;;17.81;62.22;99079.78;4994179;28;20026;-63
2021/06/03 02:32:22;;;;;;;7.18;5.20;;;;;;;17.80;62.81;99082.63;4981380;28;20058;-63
2021/06/03 02:34:48;;;;;;;8.68;5.18;;;;;;;17.78;63.21;99080.16;4976184;28;20026;-62
2021/06/03 02:37:16;;;;;;;7.95;5.35;;;;;;;17.71;63.52;99087.13;4996807;28;20140;-63
2021/06/03 02:39:41;;;;;;;7.25;5.03;;;;;;;17.56;63.19;99044.22;4980652;28;20561;-63
2021/06/03 02:42:09;;;;;;;6.85;5.07;;;;;;;17.74;63.79;99081.53;4979780;28;20036;-63
2021/06/03 02:44:38;;;;;;;7.25;5.28;;;;;;;17.62;63.98;99062.72;4979274;28;20029;-63
2021/06/03 02:47:05;;;;;;;6.90;5.55;;;;;;;17.61;63.96;99074.22;4964491;28;20065;-63
2021/06/03 02:49:31;;;;;;;7.28;5.25;;;;;;;17.52;64.04;99053.47;4979750;28;20030;-63
2021/06/03 02:52:01;;;;;;;6.75;5.43;;;;;;;17.59;64.09;99073.59;4998565;28;20035;-63
2021/06/03 02:54:26;;;;;;;6.97;5.20;;;;;;;17.41;63.80;99039.78;4981337;28;20185;-62
2021/06/03 02:56:52;;;;;;;7.38;5.40;;;;;;;17.57;63.63;99077.41;4963882;28;20176;-62
2021/06/03 02:59:17;;;;;;;8.32;5.38;;;;;;;17.33;63.08;99044.28;4984006;28;20109;-63
2021/06/03 03:01:43;;;;;;;7.22;4.97;;;;;;;17.57;63.59;99085.28;4964556;28;20081;-64
2021/06/03 03:04:08;;;;;;;6.70;5.53;;;;;;;17.41;64.34;99080.97;4979743;28;20117;-62
2021/06/03 03:06:33;;;;;;;8.45;5.95;;;;;;;17.55;64.07;99080.22;4979052;28;20652;-63
2021/06/03 03:08:59;;;;;;;6.95;5.47;;;;;;;17.58;63.69;99092.19;4977374;28;20042;-63
2021/06/03 03:11:24;;;;;;;7.10;5.63;;;;;;;17.26;63.81;99046.78;4983529;28;20137;-63
2021/06/03 03:13:49;;;;;;;6.88;5.15;;;;;;;17.41;63.87;99073.94;4981980;28;20389;-62
2021/06/03 03:16:15;;;;;;;7.47;5.47;;;;;;;17.54;63.82;99072.50;4981192;28;20049;-64
2021/06/03 03:18:40;;;;;;;7.78;5.28;;;;;;;17.33;63.52;99039.81;4978512;28;20026;-63
2021/06/03 03:21:06;;;;;;;6.70;4.97;;;;;;;17.62;63.95;99090.84;4982629;28;20034;-63
2021/06/03 03:23:32;;;;;;;8.45;5.22;;;;;;;17.59;63.56;99094.63;4965048;28;20416;-63
2021/06/03 03:25:57;;;;;;;8.50;5.55;;;;;;;17.56;63.82;99083.66;4973640;28;20034;-62
2021/06/03 03:28:23;;;;;;;7.45;5.40;;;;;;;17.61;63.15;99084.75;4965360;28;20072;-63
2021/06/03 03:30:48;;;;;;;7.60;5.72;;;;;;;17.32;63.17;99051.31;4974249;28;20041;-63
2021/06/03 03:33:15;;;;;;;7.82;5.15;;;;;;;17.54;63.79;99091.72;4981920;28;20030;-64
2021/06/03 03:35:45;;;;;;;9.30;5.65;;;;;;;17.58;63.67;99103.53;4979964;28;20034;-63
2021/06/03 03:38:11;;;;;;;7.70;5.72;;;;;;;17.63;63.32;99098.56;4996020;28;20030;-63
2021/06/03 03:40:37;;;;;;;8.00;5.90;;;;;;;17.39;63.27;99054.88;4973918;28;20085;-63
2021/06/03 03:43:02;;;;;;;6.47;5.40;;;;;;;17.74;63.02;99099.94;4991222;28;20026;-63
2021/06/03 03:45:28;;;;;;;9.90;5.60;;;;;;;17.70;62.94;99101.25;4981782;28;20049;-63
2021/06/03 03:47:54;;;;;;;8.27;5.63;;;;;;;17.64;63.09;99110.69;5006836;28;20026;-63
2021/06/03 03:50:20;;;;;;;8.73;5.82;;;;;;;17.66;63.25;99113.94;4976069;28;20046;-64
2021/06/03 03:52:45;;;;;;;7.45;5.88;;;;;;;17.71;62.71;99110.81;5008462;28;20034;-64
2021/06/03 03:55:12;;;;;;;7.05;5.47;;;;;;;17.75;63.05;99119.16;4983252;28;20031;-63
2021/06/03 03:57:38;;;;;;;7.50;5.40;;;;;;;17.61;63.28;99087.38;4981119;28;20046;-63
2021/06/03 04:00:12;;;;;;;7.82;5.68;;;;;;;17.89;63.51;99109.66;4979485;28;20440;-63
2021/06/03 04:02:37;;;;;;;8.88;5.75;;;;;;;17.90;63.31;99109.50;4978312;28;20031;-63
2021/06/03 04:05:04;;;;;;;7.32;5.70;;;;;;;17.96;63.55;99119.31;4976817;28;20049;-64
2021/06/03 04:07:29;;;;;;;7.93;5.50;;;;;;;17.91;63.48;99120.84;4981043;28;20037;-63
2021/06/03 04:09:55;;;;;;;8.20;5.47;;;;;;;17.88;63.21;99121.19;4993422;28;20045;-63
2021/06/03 04:12:21;;;;;;;7.78;5.63;;;;;;;17.85;63.33;99122.34;4982816;28;20508;-63
2021/06/03 04:14:46;;;;;;;8.00;5.32;;;;;;;17.81;63.66;99118.44;4977521;28;20034;-64
2021/06/03 04:17:12;;;;;;;9.13;5.75;;;;;;;17.84;63.84;99124.16;4980953;28;20045;-63
2021/06/03 04:19:37;;;;;;;6.97;5.35;;;;;;;17.71;63.44;99108.19;4976755;28;20046;-63
2021/06/03 04:22:03;;;;;;;9.57;5.28;;;;;;;17.78;63.80;99129.28;4988890;28;20033;-63
2021/06/03 04:24:28;;;;;;;7.38;5.35;;;;;;;17.75;63.13;99119.97;4959860;28;20058;-63
2021/06/03 04:26:54;;;;;;;6.88;5.13;;;;;;;17.73;63.56;99124.59;4971879;28;20153;-65
2021/06/03 04:29:19;;;;;;;8.32;5.65;;;;;;;17.82;63.65;99125.34;4964230;28;20030;-63
2021/06/03 04:31:45;;;;;;;7.45;5.50;;;;;;;17.81;64.43;99128.94;4987532;28;20061;-63
2021/06/03 04:34:10;;;;;;;8.60;5.20;;;;;;;17.79;64.13;99126.50;4961576;28;20031;-64
2021/06/03 04:36:36;;;;;;;7.13;5.45;;;;;;;17.86;63.77;99130.06;4989022;28;20566;-63
2021/06/03 04:39:02;;;;;;;8.35;5.63;;;;;;;17.85;63.89;99138.13;4977313;28;20031;-63
2021/06/03 04:41:28;;;;;;;7.28;5.35;;;;;;;17.62;64.45;99102.16;4974334;28;20519;-63
2021/06/03 04:43:53;;;;;;;9.15;5.70;;;;;;;17.82;64.53;99144.56;4980861;28;20038;-63
2021/06/03 04:46:19;;;;;;;7.03;5.38;;;;;;;17.80;64.23;99143.13;4975630;28;20050;-63
2021/06/03 04:48:44;;;;;;;8.18;5.57;;;;;;;17.84;64.37;99145.19;4980899;28;20065;-62
2021/06/03 04:51:14;;;;;;;7.80;5.20;;;;;;;17.80;64.54;99154.44;4958213;28;20527;-62
2021/06/03 04:53:40;;;;;;;7.05;5.53;;;;;;;17.80;64.44;99140.47;4978109;28;20030;-63
2021/06/03 04:56:06;;;;;;;8.35;5.38;;;;;;;17.78;65.11;99137.19;4957968;28;20473;-62
2021/06/03 04:58:31;;;;;;;6.38;5.40;;;;;;;17.91;65.22;99152.41;4976728;28;20036;-63
2021/06/03 05:00:56;;;;;;;7.43;5.45;;;;;;;17.93;65.49;99148.59;4975879;28;20089;-63
2021/06/03 05:03:22;;;;;;;6.97;5.20;;;;;;;17.74;65.37;99115.72;4959348;28;20035;-63
2021/06/03 05:05:47;;;;;;;8.30;5.47;;;;;;;18.01;64.92;99143.25;4977671;28;20029;-63
2021/06/03 05:08:13;;;;;;;8.30;5.22;;;;;;;17.93;65.21;99153.88;4959582;28;20066;-62
2021/06/03 05:10:39;;;;;;;6.53;5.07;;;;;;;17.88;64.83;99153.56;4975494;28;20026;-63
2021/06/03 05:13:06;;;;;;;9.23;5.72;;;;;;;17.86;64.42;99156.38;4962349;28;20031;-63
2021/06/03 05:15:32;;;;;;;8.52;5.60;;;;;;;17.80;64.71;99143.13;4976271;28;20026;-63
2021/06/03 05:17:58;;;;;;;6.97;4.97;;;;;;;17.90;64.78;99153.41;4995163;28;20034;-63
2021/06/03 05:20:25;;;;;;;7.57;5.60;;;;;;;17.88;64.39;99143.06;4974024;28;20045;-63
2021/06/03 05:22:53;;;;;;;7.50;5.43;;;;;;;17.71;64.37;99117.88;4976920;28;20572;-62
2021/06/03 05:25:22;;;;;;;7.60;5.55;;;;;;;17.69;64.57;99118.06;4979614;28;20110;-62
2021/06/03 05:27:47;;;;;;;7.85;5.50;;;;;;;17.81;65.09;99153.44;4976455;28;20065;-63
2021/06/03 05:30:14;;;;;;;8.43;5.43;;;;;;;17.86;64.42;99166.09;4980487;28;20058;-63
2021/06/03 05:32:40;;;;;;;8.05;5.53;;;;;;;17.68;64.93;99153.22;4979664;28;20092;-63
2021/06/03 05:35:08;;;;;;;8.07;5.30;;;;;;;17.79;63.98;99160.69;4972714;28;20034;-63
2021/06/03 05:37:33;;;;;;;8.77;5.22;;;;;;;17.83;64.47;99161.16;4982136;28;20035;-63
2021/06/03 05:39:59;;;;;;;7.47;5.53;;;;;;;17.80;64.40;99159.69;4965341;28;20027;-62
2021/06/03 05:42:24;;;;;;;8.70;5.47;;;;;;;17.93;64.38;99155.69;4985127;28;20042;-63
2021/06/03 05:44:49;;;;;;;7.03;5.03;;;;;;;18.02;64.20;99160.69;4980249;28;20030;-63
2021/06/03 05:47:15;;;;;;;8.23;5.40;;;;;;;17.93;64.23;99156.50;4983390;28;20121;-62
2021/06/03 05:49:40;;;;;;;7.10;5.50;;;;;;;17.93;63.74;99167.00;4976519;28;20034;-62
2021/06/03 05:52:06;;;;;;;7.60;5.85;;;;;;;17.93;64.68;99169.66;4969917;28;20027;-62
2021/06/03 05:54:32;;;;;;;8.20;5.50;;;;;;;17.90;64.63;99156.03;4972224;28;20588;-63
2021/06/03 05:56:58;;;;;;;9.10;5.63;;;;;;;17.97;64.10;99160.41;4973006;28;20038;-62
2021/06/03 05:59:24;;;;;;;8.23;5.90;;;;;;;17.90;64.07;99172.63;4978168;28;20089;-62
2021/06/03 06:01:50;;;;;;;7.65;6.22;;;;;;;17.94;64.36;99168.63;4973471;28;20058;-61
2021/06/03 06:06:07;;;;;;;9.15;8.02;;;;;;;17.84;65.14;99160.97;4964119;28;20535;-62
2021/06/03 06:07:03;;;;;;;7.78;6.35;;;;;;;17.82;64.65;99177.94;4972149;28;20046;-61
2021/06/03 06:09:29;;;;;;;9.35;5.80;;;;;;;17.85;63.89;99172.34;4962155;28;20037;-63
2021/06/03 06:11:54;;;;;;;7.35;5.68;;;;;;;17.95;63.16;99157.13;4974980;28;20046;-64
2021/06/03 06:14:20;;;;;;;7.28;5.82;;;;;;;18.05;62.59;99177.91;4955448;28;20097;-63
2021/06/03 06:16:45;;;;;;;9.75;5.35;;;;;;;18.02;61.46;99167.75;4975129;28;20086;-62
2021/06/03 06:19:11;;;;;;;9.32;5.70;;;;;;;17.98;61.16;99150.69;4976766;28;20366;-62
2021/06/03 06:21:37;;;;;;;7.90;5.38;;;;;;;17.76;60.55;99110.25;4980750;28;20157;-62
2021/06/03 06:24:03;;;;;;;8.50;5.20;;;;;;;18.31;60.65;99179.28;4975953;28;20030;-61
2021/06/03 06:26:29;;;;;;;7.57;5.53;;;;;;;18.28;61.81;99183.13;4961788;28;20038;-62
2021/06/03 06:28:56;;;;;;;7.22;5.60;;;;;;;18.36;62.54;99185.69;4978856;28;20165;-62
2021/06/03 06:31:23;;;;;;;8.35;6.13;;;;;;;18.34;62.77;99176.31;4963981;28;20117;-62
2021/06/03 06:33:48;;;;;;;8.02;6.03;;;;;;;18.43;62.63;99191.03;4960264;28;20558;-62
2021/06/03 06:36:14;;;;;;;7.00;5.57;;;;;;;18.33;62.98;99186.03;4987737;28;20034;-62
2021/06/03 06:38:40;;;;;;;8.98;6.15;;;;;;;18.49;62.70;99197.38;4974200;28;20430;-63
2021/06/03 06:41:07;;;;;;;9.20;5.55;;;;;;;18.56;62.18;99193.03;4975186;28;20069;-63
2021/06/03 06:43:33;;;;;;;7.82;5.95;;;;;;;18.63;61.64;99197.38;4964371;28;20544;-62
2021/06/03 06:46:00;;;;;;;8.30;6.00;;;;;;;18.37;61.42;99162.81;4977482;28;20693;-62
2021/06/03 06:48:25;;;;;;;10.85;5.50;;;;;;;18.71;58.72;99193.00;4956452;28;20089;-62
2021/06/03 06:50:51;;;;;;;8.25;5.10;;;;;;;18.83;58.27;99202.94;4974895;28;20031;-63
2021/06/03 06:53:17;;;;;;;8.52;5.70;;;;;;;18.79;59.51;99175.28;4976869;28;20027;-63
2021/06/03 06:55:43;;;;;;;8.27;5.43;;;;;;;19.00;57.55;99197.44;4964515;28;20053;-62
2021/06/03 06:58:09;;;;;;;7.88;5.60;;;;;;;19.05;57.14;99204.81;4960344;28;20244;-63
2021/06/03 07:00:40;;;;;;;6.93;5.40;;;;;;;18.99;57.16;99178.19;4976656;28;20508;-62
2021/06/03 07:03:07;;;;;;;6.88;5.70;;;;;;;19.17;57.89;99198.06;4970837;28;20030;-61
2021/06/03 07:05:33;;;;;;;6.63;5.20;;;;;;;19.34;57.70;99203.91;4963200;28;20130;-62
2021/06/03 07:07:59;;;;;;;8.57;5.82;;;;;;;19.50;57.64;99184.41;4969655;28;20030;-63
2021/06/03 07:10:24;;;;;;;8.50;6.28;;;;;;;19.39;57.63;99196.28;4972615;28;20042;-62
2021/06/03 07:12:51;;;;;;;8.63;6.20;;;;;;;19.32;58.74;99188.28;4962538;28;20129;-62
2021/06/03 07:15:17;;;;;;;7.78;5.80;;;;;;;19.34;57.72;99186.28;4960746;28;20045;-62
2021/06/03 07:17:42;;;;;;;8.20;5.85;;;;;;;19.50;58.21;99194.97;4980575;28;20030;-62
2021/06/03 07:20:10;;;;;;;6.60;5.53;;;;;;;19.39;57.90;99193.63;4958587;28;20486;-61
2021/06/03 07:22:37;;;;;;;7.00;5.60;;;;;;;19.58;57.45;99193.00;4982234;28;20084;-62
2021/06/03 07:25:04;;;;;;;8.38;5.38;;;;;;;19.63;56.27;99187.16;4961743;28;20062;-62
2021/06/03 07:27:30;;;;;;;9.10;5.45;;;;;;;19.81;56.02;99194.66;4976398;28;20041;-62
2021/06/03 07:29:59;;;;;;;7.25;5.70;;;;;;;19.83;55.44;99194.47;4963133;28;20038;-62
2021/06/03 07:32:25;;;;;;;10.60;5.72;;;;;;;19.82;55.47;99190.19;4976307;28;20504;-63
2021/06/03 07:34:50;;;;;;;8.57;5.15;;;;;;;19.86;55.55;99167.69;4976109;28;20030;-62
2021/06/03 07:37:16;;;;;;;8.65;5.60;;;;;;;20.15;53.59;99193.91;4968612;28;20027;-62
2021/06/03 07:39:41;;;;;;;6.85;4.95;;;;;;;20.31;53.90;99186.69;4968791;28;20105;-62
2021/06/03 07:42:09;;;;;;;6.78;4.95;;;;;;;20.37;53.33;99193.84;4971803;28;20065;-62
2021/06/03 07:44:34;;;;;;;8.43;5.13;;;;;;;20.48;52.96;99139.63;4953961;28;20066;-63
2021/06/03 07:47:00;;;;;;;8.15;5.40;;;;;;;20.80;52.41;99196.31;4966026;28;20196;-62
2021/06/03 07:49:25;;;;;;;7.25;5.20;;;;;;;20.92;52.28;99186.81;4966729;28;20042;-63
2021/06/03 07:51:50;;;;;;;8.35;5.80;;;;;;;21.34;51.16;99201.78;4968296;28;20109;-62
2021/06/03 07:54:16;;;;;;;7.25;5.13;;;;;;;21.23;51.71;99196.06;4963922;28;20489;-62
2021/06/03 07:56:41;;;;;;;7.00;5.20;;;;;;;21.31;51.44;99150.91;4973313;28;20030;-62
2021/06/03 07:59:07;;;;;;;7.90;5.18;;;;;;;21.66;50.35;99189.66;4961529;28;20911;-62
2021/06/03 08:01:32;;;;;;;8.85;5.20;;;;;;;21.45;51.58;99190.66;4961033;28;20087;-64
2021/06/03 08:03:58;;;;;;;8.38;5.53;;;;;;;21.46;51.77;99189.63;4959166;28;20745;-63
2021/06/03 08:06:23;;;;;;;7.88;5.20;;;;;;;21.45;52.04;99195.97;4974943;28;20080;-63
2021/06/03 08:08:49;;;;;;;7.90;5.28;;;;;;;21.13;52.90;99191.16;4991258;28;20100;-63
2021/06/03 08:11:14;;;;;;;7.32;5.30;;;;;;;20.88;52.17;99151.25;4964623;28;20141;-63
2021/06/03 08:13:40;;;;;;;7.15;5.25;;;;;;;20.99;53.06;99183.38;4977829;28;20066;-62
2021/06/03 08:16:05;;;;;;;7.75;5.50;;;;;;;20.82;53.50;99169.72;4981622;28;20062;-63
2021/06/03 08:18:31;;;;;;;9.27;5.43;;;;;;;21.05;53.75;99179.97;4960034;28;20393;-63
2021/06/03 08:20:59;;;;;;;8.60;5.15;;;;;;;21.08;52.87;99192.75;4974666;28;20022;-63
2021/06/03 08:23:28;;;;;;;7.05;5.18;;;;;;;21.27;51.97;99177.97;4975026;28;20027;-63
2021/06/03 08:25:55;;;;;;;12.00;5.37;;;;;;;21.45;51.90;99193.31;4979510;28;20089;-62
2021/06/03 08:28:21;;;;;;;8.32;5.38;;;;;;;21.66;50.74;99197.59;4964614;28;20282;-63
2021/06/03 08:30:47;;;;;;;10.23;5.50;;;;;;;21.92;49.81;99196.78;4995663;28;20396;-63
2021/06/03 08:33:12;;;;;;;8.63;5.95;;;;;;;22.29;47.72;99189.25;4979996;28;20053;-64
2021/06/03 08:35:38;;;;;;;7.28;5.82;;;;;;;22.97;46.23;99175.56;4979036;28;20080;-63
2021/06/03 08:38:10;;;;;;;7.13;5.38;;;;;;;22.97;45.65;99141.09;4977008;28;20038;-63
2021/06/03 08:40:47;;;;;;;7.45;5.60;;;;;;;23.53;45.21;99173.22;4964622;28;20026;-63
2021/06/03 08:43:14;;;;;;;8.32;5.47;;;;;;;23.67;44.43;99163.31;4975538;28;20624;-63
2021/06/03 08:45:42;;;;;;;7.70;5.68;;;;;;;23.48;44.70;99165.91;4980416;28;20031;-63
2021/06/03 08:48:08;;;;;;;7.25;5.32;;;;;;;23.56;43.92;99173.59;4979769;28;20400;-63
2021/06/03 08:50:38;;;;;;;8.30;5.00;;;;;;;23.68;43.97;99171.06;4980306;28;20179;-63
2021/06/03 08:53:03;;;;;;;;;;;;;;;23.68;42.46;99172.91;4977544;28;20038;-63
2021/06/03 08:58:15;;;;;;;8.38;5.15;;;;;;;24.84;41.21;99162.56;4989744;28;20093;-63
2021/06/03 09:00:43;;;;;;;9.52;5.35;;;;;;;24.72;41.19;99173.97;4964111;28;20030;-63
2021/06/03 09:03:09;;;;;;;8.25;5.05;;;;;;;25.04;40.32;99136.50;4980412;28;20164;-63
2021/06/03 09:05:35;;;;;;;7.90;5.65;;;;;;;25.46;39.53;99159.69;4979946;28;20030;-63
2021/06/03 09:08:21;;;;;;;9.55;4.95;;;;;;;26.01;37.54;99166.59;4978435;28;20027;-63
2021/06/03 09:11:14;;;;;;;7.43;5.07;;;;;;;26.11;37.34;99168.69;4966670;28;20030;-63
2021/06/03 09:13:42;;;;;;;9.70;5.18;;;;;;;26.27;36.33;99168.00;4968058;28;20162;-63
2021/06/03 09:16:09;;;;;;;7.05;4.60;;;;;;;25.89;35.26;99135.41;4981733;28;20042;-63
2021/06/03 09:18:39;;;;;;;6.05;3.90;;;;;;;26.47;33.39;99171.06;4981654;28;20084;-63
2021/06/03 09:21:26;;;;;;;6.20;4.10;;;;;;;26.56;34.36;99160.03;4976814;28;20026;-62
2021/06/03 09:24:04;;;;;;;8.00;4.70;;;;;;;26.51;34.84;99144.75;4983846;28;20104;-63
2021/06/03 09:26:50;;;;;;;7.40;4.28;;;;;;;26.87;34.10;99153.50;5009875;28;20041;-63
2021/06/03 09:29:24;;;;;;;6.28;3.72;;;;;;;27.19;32.38;99151.13;4983947;28;20145;-63
2021/06/03 09:31:50;;;;;;;7.25;4.00;;;;;;;27.10;31.92;99149.09;4984275;28;20057;-62
2021/06/03 09:34:18;;;;;;;6.93;3.63;;;;;;;26.86;32.25;99135.84;4982983;28;20046;-63
2021/06/03 09:36:58;;;;;;;5.63;3.35;;;;;;;27.26;32.68;99153.69;4966944;28;20540;-63
2021/06/03 09:39:39;;;;;;;6.22;4.05;;;;;;;26.98;32.52;99157.97;4981032;28;20113;-63
2021/06/03 09:42:19;;;;;;;7.65;4.15;;;;;;;27.14;33.41;99161.69;4977100;28;20673;-63
2021/06/03 09:44:55;;;;;;;6.82;3.53;;;;;;;26.97;32.83;99156.31;4983610;28;20038;-62
2021/06/03 09:47:37;;;;;;;5.65;3.20;;;;;;;27.37;32.12;99154.66;4975686;28;20113;-63
2021/06/03 09:50:06;;;;;;;6.03;3.30;;;;;;;27.15;31.23;99136.63;4996401;28;20037;-63
2021/06/03 09:52:33;;;;;;;7.50;3.58;;;;;;;26.75;33.12;99150.84;4982081;28;20027;-62
2021/06/03 09:55:01;;;;;;;6.03;3.33;;;;;;;26.22;34.26;99147.34;4981013;28;20022;-63
2021/06/03 09:57:35;;;;;;;7.30;3.42;;;;;;;25.54;35.53;99153.22;4983822;28;20037;-65
2021/06/03 10:00:07;;;;;;;7.15;3.72;;;;;;;25.66;35.34;99154.84;4980369;28;20417;-64
2021/06/03 10:02:33;;;;;;;8.43;3.90;;;;;;;25.58;35.48;99154.41;4979016;28;20754;-65
2021/06/03 10:04:59;;;;;;;6.45;3.75;;;;;;;25.21;36.00;99131.38;4965422;28;20042;-64
2021/06/03 10:07:24;;;;;;;7.80;4.13;;;;;;;25.09;37.82;99159.78;4973478;28;20515;-65
2021/06/03 10:09:50;;;;;;;8.30;4.07;;;;;;;25.16;37.62;99154.38;4984164;28;20089;-65
2021/06/03 10:12:25;;;;;;;7.53;3.95;;;;;;;25.02;37.58;99151.88;4982313;28;20121;-65
2021/06/03 10:14:55;;;;;;;5.85;3.80;;;;;;;24.72;37.56;99158.00;4983240;28;20030;-64
2021/06/03 10:17:26;;;;;;;8.85;4.40;;;;;;;24.93;38.19;99155.91;4978836;28;20026;-64
2021/06/03 10:19:55;;;;;;;8.35;4.45;;;;;;;25.05;37.98;99132.81;4980404;28;20050;-62
2021/06/03 10:22:27;;;;;;;6.43;4.43;;;;;;;25.05;38.82;99158.63;4976279;28;20054;-65
2021/06/03 10:24:52;;;;;;;9.00;4.40;;;;;;;24.96;38.67;99150.16;4961512;28;20433;-65
2021/06/03 10:27:19;;;;;;;10.07;4.38;;;;;;;25.11;37.37;99152.38;4984279;28;20039;-64
2021/06/03 10:29:45;;;;;;;7.20;3.83;;;;;;;25.05;38.31;99148.78;4997996;28;20509;-64
2021/06/03 10:32:11;;;;;;;6.82;4.43;;;;;;;25.18;38.03;99154.97;4977292;28;20072;-64
2021/06/03 10:34:37;;;;;;;8.23;4.90;;;;;;;25.05;37.92;99150.66;4964354;28;20034;-64
2021/06/03 10:37:03;;;;;;;8.90;5.03;;;;;;;25.18;38.24;99144.31;4979923;28;20551;-65
2021/06/03 10:39:29;;;;;;;7.30;4.90;;;;;;;25.25;38.19;99153.84;4979245;28;20092;-65
2021/06/03 10:41:54;;;;;;;8.65;4.93;;;;;;;24.98;38.68;99136.63;4982833;28;20125;-65
2021/06/03 10:44:20;;;;;;;8.40;4.38;;;;;;;24.84;38.63;99112.03;4966852;28;20046;-64
2021/06/03 10:46:46;;;;;;;8.80;5.30;;;;;;;25.25;36.34;99142.41;4954222;28;20030;-64
2021/06/03 10:49:12;;;;;;;7.30;4.53;;;;;;;25.31;37.26;99149.47;4998765;28;20041;-64
2021/06/03 10:51:41;;;;;;;7.43;4.40;;;;;;;25.43;37.38;99145.00;4978697;28;20034;-65
2021/06/03 10:54:07;;;;;;;7.78;4.80;;;;;;;25.32;38.10;99138.59;4975132;28;20513;-65
2021/06/03 10:56:32;;;;;;;8.35;5.10;;;;;;;25.16;38.68;99103.84;4964211;28;20044;-64
2021/06/03 10:59:00;;;;;;;7.43;4.90;;;;;;;25.22;38.61;99126.84;4971608;28;20484;-65
2021/06/03 11:01:26;;;;;;;7.82;4.90;;;;;;;24.98;38.32;99123.31;4981328;28;20499;-63
2021/06/03 11:03:59;;;;;;;6.03;4.10;;;;;;;25.10;38.75;99135.63;4994474;28;20030;-64
2021/06/03 11:06:27;;;;;;;7.20;4.47;;;;;;;25.13;38.34;99139.66;4982254;28;20049;-64
2021/06/03 11:08:56;;;;;;;6.90;4.60;;;;;;;25.14;39.03;99139.44;5009905;28;20350;-66
2021/06/03 11:11:28;;;;;;;7.97;4.70;;;;;;;25.31;38.44;99141.50;4982931;28;20116;-63
2021/06/03 11:14:04;;;;;;;8.05;4.65;;;;;;;25.36;39.42;99128.31;4972041;28;20029;-63
2021/06/03 11:16:35;;;;;;;6.65;5.00;;;;;;;25.24;38.96;99130.13;4959887;28;20030;-65
2021/06/03 11:19:00;;;;;;;7.13;4.72;;;;;;;25.29;38.11;99138.25;4990767;28;20393;-64
2021/06/03 11:21:32;;;;;;;7.38;5.18;;;;;;;25.15;39.02;99129.59;4978621;28;20030;-65
2021/06/03 11:24:23;;;;;;;8.27;4.88;;;;;;;25.60;38.25;99123.81;4979362;28;20034;-66
2021/06/03 11:26:56;;;;;;;6.28;4.28;;;;;;;25.66;37.62;99117.56;4978607;28;20030;-66
2021/06/03 11:29:27;;;;;;;6.00;4.47;;;;;;;25.44;37.04;99122.63;4989924;28;20030;-65
2021/06/03 11:32:05;;;;;;;8.02;4.60;;;;;;;25.39;37.64;99116.38;4993467;28;20062;-64
2021/06/03 11:34:42;;;;;;;7.30;4.22;;;;;;;25.62;37.25;99115.63;4977976;28;20053;-65
2021/06/03 11:37:14;;;;;;;8.35;4.20;;;;;;;25.58;36.06;99109.13;4984262;28;20026;-64
2021/06/03 11:39:41;;;;;;;7.90;3.92;;;;;;;25.66;36.63;99117.56;4975823;28;20068;-65